Time;durP1;ratioP1;P1;durP2;ratioP2;P2;SDS_P1;SDS_P2;PMS_P1;PMS_P2;Temp;Humidity;BMP_temperature;BMP_pressure;BME280_temperature;BME280_humidity;BME280_pressure;Samples;Min_cycle;Max_cycle;Signal;HPM_P1;HPM_P2
2022/10/01 00:00:32;;;;;;;;;4.75;4.00;;;;;;;;5031017;27;50904;-50
2022/10/01 00:02:57;;;;;;;;;17.25;15.25;;;;;;;;5034228;27;52016;-50
2022/10/01 00:05:22;;;;;;;;;5.67;4.67;;;;;;;;5012144;27;51083;-50
2022/10/01 00:07:48;;;;;;;;;4.00;4.00;;;;;;;;5011910;28;50854;-51
2022/10/01 00:10:14;;;;;;;;;7.00;6.25;;;;;;;;5011425;27;51289;-51
2022/10/01 00:12:44;;;;;;;;;4.00;4.00;;;;;;;;5011431;28;52002;-52
2022/10/01 00:15:16;;;;;;;;;3.67;3.67;;;;;;;;5002157;28;51174;-52
2022/10/01 00:17:42;;;;;;;;;2.67;2.67;;;;;;;;5056762;27;51185;-53
2022/10/01 00:20:08;;;;;;;;;3.00;3.00;;;;;;;;5011456;28;51257;-50
2022/10/01 00:22:36;;;;;;;;;5.67;4.00;;;;;;;;5011461;28;51810;-50
2022/10/01 00:25:02;;;;;;;;;5.25;5.25;;;;;;;;5011568;27;51055;-50
2022/10/01 00:27:27;;;;;;;;;5.00;5.00;;;;;;;;5010674;28;50904;-51
2022/10/01 00:29:53;;;;;;;;;4.25;4.25;;;;;;;;5011660;27;50904;-51
2022/10/01 00:32:18;;;;;;;;;4.00;4.00;;;;;;;;5011610;28;51290;-49
2022/10/01 00:34:44;;;;;;;;;7.25;6.25;;;;;;;;5011447;27;51169;-52
2022/10/01 00:37:09;;;;;;;;;4.00;4.00;;;;;;;;5012067;27;51096;-50
2022/10/01 00:39:35;;;;;;;;;3.00;3.00;;;;;;;;5010532;27;51321;-49
2022/10/01 00:42:01;;;;;;;;;8.50;7.25;;;;;;;;5010905;28;51109;-51
2022/10/01 00:44:28;;;;;;;;;3.33;3.33;;;;;;;;5010662;28;51079;-50
2022/10/01 00:46:57;;;;;;;;;7.75;6.75;;;;;;;;5011621;27;51108;-51
2022/10/01 00:49:25;;;;;;;;;3.00;3.00;;;;;;;;5011989;28;50870;-50
2022/10/01 00:51:52;;;;;;;;;5.00;3.75;;;;;;;;5010930;27;51762;-51
2022/10/01 00:54:23;;;;;;;;;4.50;4.00;;;;;;;;4998193;28;51158;-49
2022/10/01 00:56:49;;;;;;;;;2.33;2.33;;;;;;;;5011073;28;51334;-51
2022/10/01 00:59:15;;;;;;;;;2.33;1.67;;;;;;;;5011053;28;51002;-51
2022/10/01 01:01:40;;;;;;;;;2.00;2.00;;;;;;;;5041167;27;51691;-50
2022/10/01 01:04:15;;;;;;;;;3.00;3.00;;;;;;;;5011248;28;51010;-48
2022/10/01 01:06:40;;;;;;;;;2.33;2.33;;;;;;;;5011134;27;51189;-51
2022/10/01 01:09:05;;;;;;;;;2.33;2.33;;;;;;;;5011298;28;51079;-51
2022/10/01 01:11:37;;;;;;;;;4.33;4.33;;;;;;;;5010826;27;52498;-51
2022/10/01 01:14:12;;;;;;;;;4.00;4.00;;;;;;;;5011050;28;50912;-53
2022/10/01 01:16:43;;;;;;;;;3.00;2.67;;;;;;;;5008032;27;51171;-53
2022/10/01 01:19:21;;;;;;;;;2.67;2.33;;;;;;;;5006055;28;50861;-50
2022/10/01 01:21:50;;;;;;;;;3.00;3.00;;;;;;;;5010277;28;52731;-49
2022/10/01 01:24:19;;;;;;;;;3.00;3.00;;;;;;;;5010857;27;51074;-50
2022/10/01 01:26:50;;;;;;;;;2.67;2.67;;;;;;;;5010593;28;51095;-49
2022/10/01 01:29:38;;;;;;;;;3.67;3.00;;;;;;;;5010771;28;50905;-51
2022/10/01 01:32:07;;;;;;;;;2.33;2.00;;;;;;;;5007552;27;51875;-53
2022/10/01 01:34:34;;;;;;;;;2.00;2.00;;;;;;;;5009900;28;51172;-50
2022/10/01 01:37:11;;;;;;;;;0.00;0.00;;;;;;;;5010978;28;50885;-53
2022/10/01 01:39:37;;;;;;;;;2.00;2.00;;;;;;;;5011217;28;50968;-51
2022/10/01 01:42:05;;;;;;;;;2.00;2.00;;;;;;;;5010295;27;51835;-51
2022/10/01 01:44:37;;;;;;;;;2.00;2.00;;;;;;;;5010854;28;50996;-50
2022/10/01 01:47:04;;;;;;;;;5.00;5.00;;;;;;;;5010999;28;50908;-50
2022/10/01 01:49:30;;;;;;;;;1.33;1.00;;;;;;;;5010309;28;50992;-51
2022/10/01 01:51:58;;;;;;;;;1.00;1.00;;;;;;;;5009604;28;52138;-51
2022/10/01 01:54:24;;;;;;;;;1.00;1.00;;;;;;;;5015299;28;51363;-51
2022/10/01 01:56:49;;;;;;;;;2.00;1.67;;;;;;;;5010503;28;51169;-49
2022/10/01 01:59:17;;;;;;;;;1.00;1.00;;;;;;;;5010778;28;51171;-50
2022/10/01 02:01:43;;;;;;;;;0.33;0.33;;;;;;;;5031000;27;50948;-52
2022/10/01 02:04:14;;;;;;;;;1.00;1.00;;;;;;;;5010694;28;50933;-49
2022/10/01 02:07:14;;;;;;;;;2.00;2.00;;;;;;;;4997422;28;51165;-48
2022/10/01 02:09:57;;;;;;;;;1.00;1.00;;;;;;;;5021761;28;51061;-49
2022/10/01 02:12:29;;;;;;;;;1.00;1.00;;;;;;;;5010076;28;51960;-50
2022/10/01 02:15:03;;;;;;;;;1.00;1.00;;;;;;;;5005918;27;50977;-48
2022/10/01 02:17:37;;;;;;;;;1.00;1.00;;;;;;;;5031400;27;51141;-50
2022/10/01 02:20:21;;;;;;;;;1.00;1.00;;;;;;;;5010833;28;51141;-53
2022/10/01 02:22:52;;;;;;;;;0.33;0.33;;;;;;;;5004690;28;51851;-52
2022/10/01 02:25:25;;;;;;;;;1.33;1.33;;;;;;;;5000626;28;51004;-52
2022/10/01 02:28:00;;;;;;;;;0.00;0.00;;;;;;;;5010012;28;51010;-54
2022/10/01 02:30:26;;;;;;;;;1.00;1.00;;;;;;;;5010386;28;51179;-51
2022/10/01 02:32:53;;;;;;;;;1.00;1.00;;;;;;;;5009891;28;51437;-51
2022/10/01 02:35:19;;;;;;;;;0.33;0.33;;;;;;;;5010379;28;50936;-50
2022/10/01 02:37:47;;;;;;;;;1.00;1.00;;;;;;;;5010297;28;51238;-53
2022/10/01 02:40:14;;;;;;;;;1.00;1.00;;;;;;;;5003402;28;51291;-50
2022/10/01 02:42:41;;;;;;;;;0.33;0.33;;;;;;;;5003190;28;51877;-50
2022/10/01 02:45:07;;;;;;;;;1.00;1.00;;;;;;;;5010180;28;51058;-53
2022/10/01 02:47:34;;;;;;;;;1.00;1.00;;;;;;;;5010229;28;50958;-50
2022/10/01 02:50:03;;;;;;;;;1.00;1.00;;;;;;;;5010349;27;51278;-50
2022/10/01 02:52:38;;;;;;;;;1.00;1.00;;;;;;;;5011796;28;51142;-51
2022/10/01 02:55:09;;;;;;;;;1.00;1.00;;;;;;;;5010205;28;51224;-49
2022/10/01 02:57:34;;;;;;;;;0.00;0.00;;;;;;;;5008814;28;51098;-51
2022/10/01 03:00:02;;;;;;;;;1.00;1.00;;;;;;;;5010090;28;51197;-52
2022/10/01 03:02:28;;;;;;;;;0.00;0.00;;;;;;;;5031839;27;53189;-49
2022/10/01 03:04:55;;;;;;;;;0.00;0.00;;;;;;;;5010010;28;51147;-52
2022/10/01 03:07:21;;;;;;;;;1.00;0.00;;;;;;;;5009887;28;51032;-50
2022/10/01 03:09:48;;;;;;;;;0.00;0.00;;;;;;;;5010328;28;51287;-52
2022/10/01 03:12:13;;;;;;;;;0.00;0.00;;;;;;;;5009618;28;51906;-51
2022/10/01 03:14:39;;;;;;;;;0.00;0.00;;;;;;;;5008333;28;50984;-53
2022/10/01 03:17:07;;;;;;;;;0.00;0.00;;;;;;;;5052302;27;51335;-53
2022/10/01 03:19:32;;;;;;;;;0.00;0.00;;;;;;;;5008822;28;51256;-52
2022/10/01 03:21:57;;;;;;;;;0.00;0.00;;;;;;;;5009251;27;51975;-51
2022/10/01 03:24:23;;;;;;;;;0.00;0.00;;;;;;;;5009775;27;50927;-50
2022/10/01 03:26:48;;;;;;;;;0.00;0.00;;;;;;;;5008249;28;51249;-50
2022/10/01 03:29:14;;;;;;;;;0.00;0.00;;;;;;;;5009983;28;50991;-54
2022/10/01 03:31:39;;;;;;;;;0.00;0.00;;;;;;;;5009145;28;51932;-48
2022/10/01 03:34:04;;;;;;;;;0.00;0.00;;;;;;;;5003927;28;51253;-49
2022/10/01 03:36:29;;;;;;;;;0.00;0.00;;;;;;;;5009713;27;51052;-49
2022/10/01 03:38:55;;;;;;;;;0.00;0.00;;;;;;;;5009847;27;51026;-51
2022/10/01 03:41:20;;;;;;;;;0.67;0.00;;;;;;;;5009070;28;51947;-49
2022/10/01 03:43:45;;;;;;;;;0.00;0.00;;;;;;;;5009180;27;51071;-52
2022/10/01 03:46:10;;;;;;;;;0.00;0.00;;;;;;;;5009393;27;50945;-50
2022/10/01 03:48:36;;;;;;;;;0.00;0.00;;;;;;;;5009634;27;50924;-50
2022/10/01 03:51:01;;;;;;;;;0.67;0.00;;;;;;;;5007375;28;51884;-52
2022/10/01 03:53:27;;;;;;;;;0.00;0.00;;;;;;;;5010557;28;51051;-52
2022/10/01 03:55:52;;;;;;;;;0.00;0.00;;;;;;;;5008974;28;51081;-51
2022/10/01 03:58:18;;;;;;;;;0.00;0.00;;;;;;;;5009176;28;51420;-53
2022/10/01 04:00:44;;;;;;;;;1.00;1.00;;;;;;;;5011212;27;53893;-53
2022/10/01 04:03:09;;;;;;;;;0.00;0.00;;;;;;;;5009222;28;50908;-51
2022/10/01 04:05:35;;;;;;;;;0.00;0.00;;;;;;;;4999322;28;50908;-49
2022/10/01 04:08:00;;;;;;;;;0.00;0.00;;;;;;;;5005250;28;51193;-52
2022/10/01 04:10:25;;;;;;;;;0.00;0.00;;;;;;;;5008851;27;52370;-49
2022/10/01 04:12:50;;;;;;;;;0.00;0.00;;;;;;;;5008850;27;51064;-50
2022/10/01 04:15:16;;;;;;;;;0.00;0.00;;;;;;;;5006460;27;51334;-49
2022/10/01 04:17:41;;;;;;;;;0.00;0.00;;;;;;;;5026419;27;50978;-49
2022/10/01 04:20:07;;;;;;;;;0.00;0.00;;;;;;;;5007725;27;52101;-49
2022/10/01 04:22:34;;;;;;;;;0.00;0.00;;;;;;;;5007311;28;50946;-51
2022/10/01 04:25:01;;;;;;;;;0.00;0.00;;;;;;;;5008529;28;51091;-49
2022/10/01 04:27:26;;;;;;;;;0.00;0.00;;;;;;;;5009738;28;51188;-52
2022/10/01 04:29:51;;;;;;;;;0.00;0.00;;;;;;;;5011467;27;51978;-52
2022/10/01 04:32:20;;;;;;;;;0.00;0.00;;;;;;;;5011879;27;51262;-53
2022/10/01 04:34:51;;;;;;;;;0.00;0.00;;;;;;;;5011823;28;50997;-52
2022/10/01 04:37:16;;;;;;;;;0.00;0.00;;;;;;;;5002492;28;50978;-50
2022/10/01 04:39:42;;;;;;;;;0.00;0.00;;;;;;;;5007876;28;51774;-52
2022/10/01 04:42:07;;;;;;;;;0.00;0.00;;;;;;;;5011383;28;51207;-52
2022/10/01 04:44:32;;;;;;;;;0.00;0.00;;;;;;;;5011877;27;51261;-53
2022/10/01 04:46:57;;;;;;;;;0.00;0.00;;;;;;;;5012161;27;50895;-49
2022/10/01 04:49:22;;;;;;;;;0.00;0.00;;;;;;;;5011446;27;51049;-50
2022/10/01 04:51:47;;;;;;;;;0.00;0.00;;;;;;;;5011633;27;50947;-50
2022/10/01 04:54:13;;;;;;;;;0.00;0.00;;;;;;;;5014490;27;50924;-50
2022/10/01 04:56:38;;;;;;;;;0.00;0.00;;;;;;;;5011605;28;51107;-50
2022/10/01 04:59:04;;;;;;;;;0.00;0.00;;;;;;;;5010963;28;51249;-51
2022/10/01 05:01:30;;;;;;;;;0.00;0.00;;;;;;;;5017295;27;50971;-51
2022/10/01 05:03:55;;;;;;;;;0.00;0.00;;;;;;;;5011322;27;50904;-51
2022/10/01 05:06:20;;;;;;;;;0.00;0.00;;;;;;;;5011076;27;50908;-49
2022/10/01 05:08:47;;;;;;;;;0.00;0.00;;;;;;;;5011072;27;51814;-52
2022/10/01 05:11:12;;;;;;;;;0.00;0.00;;;;;;;;5008925;28;51053;-50
2022/10/01 05:13:38;;;;;;;;;0.00;0.00;;;;;;;;5011245;28;51111;-52
2022/10/01 05:16:03;;;;;;;;;0.00;0.00;;;;;;;;5012489;27;51109;-49
2022/10/01 05:18:29;;;;;;;;;0.00;0.00;;;;;;;;5011188;28;52206;-51
2022/10/01 05:20:54;;;;;;;;;0.00;0.00;;;;;;;;5011025;27;50996;-49
2022/10/01 05:23:19;;;;;;;;;0.00;0.00;;;;;;;;5011471;28;50982;-52
2022/10/01 05:25:45;;;;;;;;;1.00;1.00;;;;;;;;5011365;27;51983;-51
2022/10/01 05:28:10;;;;;;;;;0.00;0.00;;;;;;;;5009857;27;52804;-53
2022/10/01 05:30:36;;;;;;;;;0.00;0.00;;;;;;;;5011162;28;51021;-48
2022/10/01 05:33:02;;;;;;;;;0.00;0.00;;;;;;;;5011148;28;51218;-49
2022/10/01 05:35:28;;;;;;;;;0.00;0.00;;;;;;;;5013679;27;51074;-51
2022/10/01 05:37:57;;;;;;;;;0.00;0.00;;;;;;;;5010589;28;51903;-52
2022/10/01 05:40:26;;;;;;;;;0.00;0.00;;;;;;;;5011248;28;51122;-51
2022/10/01 05:42:51;;;;;;;;;0.00;0.00;;;;;;;;5010750;28;51051;-49
2022/10/01 05:45:18;;;;;;;;;0.00;0.00;;;;;;;;4998098;28;50870;-51
2022/10/01 05:47:44;;;;;;;;;0.00;0.00;;;;;;;;5010985;27;51985;-51
2022/10/01 05:50:09;;;;;;;;;0.00;0.00;;;;;;;;5010868;27;50866;-51
2022/10/01 05:52:34;;;;;;;;;1.00;1.00;;;;;;;;5016931;28;51094;-51
2022/10/01 05:54:59;;;;;;;;;0.00;0.00;;;;;;;;5017422;28;51203;-51
2022/10/01 05:57:25;;;;;;;;;0.00;0.00;;;;;;;;5010724;27;51033;-51
2022/10/01 05:59:50;;;;;;;;;0.00;0.00;;;;;;;;5010869;27;51023;-53
2022/10/01 06:02:15;;;;;;;;;0.00;0.00;;;;;;;;5062990;27;50949;-52
2022/10/01 06:04:40;;;;;;;;;0.00;0.00;;;;;;;;5009618;28;51221;-52
2022/10/01 06:07:06;;;;;;;;;0.33;0.00;;;;;;;;5010350;28;51169;-52
2022/10/01 06:09:31;;;;;;;;;0.00;0.00;;;;;;;;5010753;27;51053;-49
2022/10/01 06:11:56;;;;;;;;;1.00;1.00;;;;;;;;5010526;27;51043;-50
2022/10/01 06:14:21;;;;;;;;;1.67;1.67;;;;;;;;5007538;27;51057;-53
2022/10/01 06:16:47;;;;;;;;;2.00;2.00;;;;;;;;5034887;27;51639;-51
2022/10/01 06:19:12;;;;;;;;;0.00;0.00;;;;;;;;5009861;28;50901;-50
2022/10/01 06:21:37;;;;;;;;;0.33;0.33;;;;;;;;5010731;28;50926;-50
2022/10/01 06:24:02;;;;;;;;;0.00;0.00;;;;;;;;5010824;28;51346;-49
2022/10/01 06:26:28;;;;;;;;;1.00;1.00;;;;;;;;5038207;27;52757;-51
2022/10/01 06:28:53;;;;;;;;;1.00;1.00;;;;;;;;5075329;27;50999;-51
2022/10/01 06:31:19;;;;;;;;;0.00;0.00;;;;;;;;5058340;27;51042;-51
2022/10/01 06:33:45;;;;;;;;;1.00;1.00;;;;;;;;5025363;27;51264;-53
2022/10/01 06:36:10;;;;;;;;;2.00;1.00;;;;;;;;5011748;27;52881;-52
2022/10/01 06:38:35;;;;;;;;;2.00;1.00;;;;;;;;5027857;27;51092;-53
2022/10/01 06:41:01;;;;;;;;;3.00;2.00;;;;;;;;5010449;28;50901;-52
2022/10/01 06:43:28;;;;;;;;;1.00;1.00;;;;;;;;5009877;28;51332;-52
2022/10/01 06:45:53;;;;;;;;;2.67;2.00;;;;;;;;5009846;28;51729;-49
2022/10/01 06:48:19;;;;;;;;;2.00;2.00;;;;;;;;5021364;27;51030;-50
2022/10/01 06:50:45;;;;;;;;;1.00;0.00;;;;;;;;5009266;28;51209;-52
2022/10/01 06:53:13;;;;;;;;;3.00;3.00;;;;;;;;5016155;28;50888;-50
2022/10/01 06:55:38;;;;;;;;;0.33;0.33;;;;;;;;4999653;27;52189;-54
2022/10/01 06:58:09;;;;;;;;;3.00;2.00;;;;;;;;5012680;27;51177;-51
2022/10/01 07:00:35;;;;;;;;;1.33;1.00;;;;;;;;5030067;27;50897;-51
2022/10/01 07:03:01;;;;;;;;;2.33;1.33;;;;;;;;5030950;27;51413;-51
2022/10/01 07:05:26;;;;;;;;;1.00;1.00;;;;;;;;5015931;27;52290;-51
2022/10/01 07:07:52;;;;;;;;;1.00;0.00;;;;;;;;5013416;27;51165;-51
2022/10/01 07:10:19;;;;;;;;;4.33;3.67;;;;;;;;5003952;27;51179;-53
2022/10/01 07:12:47;;;;;;;;;2.00;1.00;;;;;;;;5016955;27;51333;-51
2022/10/01 07:15:12;;;;;;;;;1.00;1.00;;;;;;;;5011388;27;51227;-50
2022/10/01 07:17:41;;;;;;;;;1.00;1.00;;;;;;;;5018598;27;51072;-51
2022/10/01 07:20:07;;;;;;;;;1.00;1.00;;;;;;;;5014048;27;51351;-52
2022/10/01 07:22:32;;;;;;;;;2.00;2.00;;;;;;;;5009069;27;52034;-51
2022/10/01 07:24:57;;;;;;;;;1.00;1.00;;;;;;;;5025863;27;51969;-50
2022/10/01 07:27:23;;;;;;;;;1.67;1.33;;;;;;;;5009325;28;50887;-51
2022/10/01 07:29:48;;;;;;;;;2.00;2.00;;;;;;;;5028127;27;51017;-49
2022/10/01 07:32:13;;;;;;;;;1.00;1.00;;;;;;;;5038195;27;51351;-50
2022/10/01 07:34:39;;;;;;;;;2.00;1.33;;;;;;;;5039582;27;53114;-50
2022/10/01 07:37:08;;;;;;;;;1.00;1.00;;;;;;;;5035988;27;51031;-50
2022/10/01 07:39:33;;;;;;;;;2.00;2.00;;;;;;;;5018627;27;51038;-54
2022/10/01 07:41:58;;;;;;;;;2.00;2.00;;;;;;;;5009029;27;51315;-50
2022/10/01 07:44:25;;;;;;;;;1.33;1.33;;;;;;;;5024464;27;51614;-50
2022/10/01 07:46:50;;;;;;;;;3.33;2.00;;;;;;;;5014590;27;51284;-51
2022/10/01 07:49:15;;;;;;;;;3.00;1.33;;;;;;;;5024328;27;53255;-52
2022/10/01 07:51:43;;;;;;;;;1.33;1.00;;;;;;;;5018212;27;53227;-49
2022/10/01 07:54:09;;;;;;;;;4.00;2.67;;;;;;;;5010138;27;52467;-53
2022/10/01 07:56:34;;;;;;;;;1.00;1.00;;;;;;;;5013963;27;51214;-50
2022/10/01 07:58:59;;;;;;;;;2.00;2.00;;;;;;;;5037067;27;51004;-48
2022/10/01 08:01:25;;;;;;;;;6.33;5.00;;;;;;;;5020289;27;51439;-49
2022/10/01 08:03:51;;;;;;;;;2.67;2.00;;;;;;;;5037224;27;52466;-50
2022/10/01 08:06:20;;;;;;;;;1.67;1.00;;;;;;;;5015561;27;51028;-51
2022/10/01 08:08:45;;;;;;;;;2.00;2.00;;;;;;;;5025315;27;51031;-50
2022/10/01 08:11:13;;;;;;;;;2.00;2.00;;;;;;;;5031536;27;51177;-50
2022/10/01 08:13:39;;;;;;;;;2.67;2.00;;;;;;;;5011788;27;51269;-50
2022/10/01 08:16:05;;;;;;;;;3.67;2.33;;;;;;;;5012912;27;51244;-51
2022/10/01 08:18:30;;;;;;;;;2.33;1.33;;;;;;;;5020035;27;51217;-52
2022/10/01 08:20:57;;;;;;;;;3.67;2.33;;;;;;;;5011766;27;51307;-52
2022/10/01 08:23:22;;;;;;;;;2.00;2.00;;;;;;;;5011383;28;52171;-51
2022/10/01 08:25:48;;;;;;;;;4.00;3.00;;;;;;;;5013185;27;51158;-50
2022/10/01 08:28:13;;;;;;;;;3.00;2.00;;;;;;;;5013621;27;51783;-49
2022/10/01 08:30:39;;;;;;;;;4.00;2.00;;;;;;;;5027193;27;51251;-50
2022/10/01 08:33:05;;;;;;;;;2.00;2.00;;;;;;;;5022270;27;51954;-50
2022/10/01 08:35:32;;;;;;;;;3.00;3.00;;;;;;;;5011423;27;50903;-53
2022/10/01 08:38:04;;;;;;;;;4.67;3.00;;;;;;;;5010385;27;51025;-51
2022/10/01 08:40:36;;;;;;;;;4.00;3.33;;;;;;;;5010879;28;51240;-51
2022/10/01 08:43:05;;;;;;;;;5.33;5.00;;;;;;;;5011031;28;51836;-52
2022/10/01 08:45:41;;;;;;;;;2.00;2.00;;;;;;;;5023524;27;51279;-51
2022/10/01 08:48:08;;;;;;;;;3.00;2.00;;;;;;;;5011567;27;50857;-50
2022/10/01 08:50:48;;;;;;;;;3.00;3.00;;;;;;;;5014000;27;51153;-51
2022/10/01 08:53:23;;;;;;;;;4.67;3.00;;;;;;;;5005810;28;52196;-50
2022/10/01 08:55:50;;;;;;;;;3.00;1.33;;;;;;;;5011537;28;51051;-52
2022/10/01 08:58:20;;;;;;;;;3.33;3.33;;;;;;;;5008459;27;51088;-50
2022/10/01 09:00:46;;;;;;;;;3.00;3.00;;;;;;;;5034583;27;51110;-51
2022/10/01 09:03:12;;;;;;;;;3.00;2.00;;;;;;;;5009733;27;53416;-50
2022/10/01 09:05:40;;;;;;;;;3.67;2.67;;;;;;;;5010773;28;51028;-52
2022/10/01 09:08:06;;;;;;;;;2.00;2.00;;;;;;;;5010924;27;51045;-50
2022/10/01 09:10:31;;;;;;;;;3.00;3.00;;;;;;;;5012823;27;51116;-51
2022/10/01 09:13:15;;;;;;;;;3.67;3.67;;;;;;;;5012196;27;51818;-51
2022/10/01 09:15:43;;;;;;;;;3.00;3.00;;;;;;;;5025493;27;50968;-50
2022/10/01 09:18:24;;;;;;;;;2.33;2.00;;;;;;;;5053234;27;50964;-52
2022/10/01 09:20:55;;;;;;;;;5.00;4.00;;;;;;;;5028886;27;51307;-51
2022/10/01 09:23:28;;;;;;;;;3.00;2.00;;;;;;;;5020916;27;52305;-49
2022/10/01 09:25:56;;;;;;;;;4.00;3.67;;;;;;;;5015442;27;51002;-53
2022/10/01 09:28:32;;;;;;;;;5.33;4.00;;;;;;;;5022766;27;51143;-50
2022/10/01 09:31:17;;;;;;;;;5.33;4.00;;;;;;;;5028653;27;51114;-54
2022/10/01 09:33:56;;;;;;;;;3.33;2.67;;;;;;;;5018880;27;52019;-50
2022/10/01 09:36:37;;;;;;;;;4.67;4.00;;;;;;;;5005815;28;51140;-51
2022/10/01 09:39:15;;;;;;;;;5.00;4.00;;;;;;;;4996659;27;51088;-52
2022/10/01 09:41:44;;;;;;;;;5.33;4.00;;;;;;;;5017680;27;51162;-51
2022/10/01 09:44:17;;;;;;;;;3.67;3.67;;;;;;;;5009049;27;51105;-52
2022/10/01 09:46:44;;;;;;;;;4.00;3.00;;;;;;;;5026389;27;51178;-51
2022/10/01 09:49:20;;;;;;;;;4.00;3.00;;;;;;;;5029081;27;51234;-55
2022/10/01 09:51:48;;;;;;;;;3.00;3.00;;;;;;;;5010833;28;51043;-50
2022/10/01 09:54:30;;;;;;;;;4.67;3.67;;;;;;;;5014657;27;51177;-50
2022/10/01 09:57:19;;;;;;;;;7.33;6.33;;;;;;;;5009937;28;51057;-51
2022/10/01 10:00:10;;;;;;;;;5.00;4.00;;;;;;;;5009348;27;51110;-51
2022/10/01 10:02:49;;;;;;;;;8.67;7.67;;;;;;;;5014116;27;50957;-49
2022/10/01 10:05:16;;;;;;;;;5.33;5.00;;;;;;;;5008624;28;51102;-49
2022/10/01 10:07:58;;;;;;;;;7.67;6.00;;;;;;;;5010256;27;50984;-50
2022/10/01 10:10:34;;;;;;;;;3.00;2.33;;;;;;;;5025068;27;51114;-50
2022/10/01 10:13:09;;;;;;;;;5.67;4.67;;;;;;;;5009299;27;51574;-51
2022/10/01 10:15:35;;;;;;;;;6.33;6.00;;;;;;;;5019230;27;51400;-51
2022/10/01 10:18:15;;;;;;;;;8.00;5.00;;;;;;;;5025283;27;50937;-53
2022/10/01 10:20:42;;;;;;;;;4.00;4.00;;;;;;;;5020469;27;51143;-50
2022/10/01 10:23:14;;;;;;;;;7.33;6.33;;;;;;;;5010152;27;51320;-49
2022/10/01 10:25:39;;;;;;;;;7.33;6.00;;;;;;;;5027366;27;51706;-54
2022/10/01 10:28:17;;;;;;;;;7.00;6.67;;;;;;;;5007742;27;51392;-50
2022/10/01 10:30:42;;;;;;;;;6.00;5.00;;;;;;;;5015838;27;51146;-53
2022/10/01 10:33:11;;;;;;;;;5.00;4.00;;;;;;;;5018498;28;51135;-51
2022/10/01 10:35:37;;;;;;;;;5.33;4.33;;;;;;;;5020320;27;52732;-52
2022/10/01 10:38:02;;;;;;;;;4.00;3.33;;;;;;;;5008711;27;52568;-53
2022/10/01 10:40:31;;;;;;;;;3.33;2.33;;;;;;;;5009075;27;52525;-49
2022/10/01 10:42:57;;;;;;;;;4.00;3.33;;;;;;;;5008372;27;51915;-50
2022/10/01 10:45:42;;;;;;;;;4.00;4.00;;;;;;;;5028614;27;53919;-51
2022/10/01 10:48:12;;;;;;;;;3.67;3.67;;;;;;;;5008830;28;51116;-52
2022/10/01 10:50:39;;;;;;;;;3.00;3.00;;;;;;;;5009731;28;51111;-53
2022/10/01 10:53:18;;;;;;;;;6.67;5.67;;;;;;;;5018329;28;51266;-52
2022/10/01 10:55:52;;;;;;;;;7.00;5.00;;;;;;;;5009593;28;52888;-49
2022/10/01 10:58:18;;;;;;;;;6.33;6.00;;;;;;;;5009187;28;51087;-53
2022/10/01 11:00:48;;;;;;;;;7.33;6.00;;;;;;;;5014021;27;51191;-51
2022/10/01 11:03:15;;;;;;;;;9.67;8.33;;;;;;;;5009930;28;50856;-55
2022/10/01 11:05:41;;;;;;;;;9.00;8.00;;;;;;;;5009337;28;51865;-53
2022/10/01 11:08:10;;;;;;;;;7.67;7.00;;;;;;;;5009519;27;51257;-52
2022/10/01 11:10:35;;;;;;;;;5.33;4.67;;;;;;;;5009413;27;50998;-53
2022/10/01 11:13:05;;;;;;;;;6.67;4.00;;;;;;;;5008893;28;51127;-57
2022/10/01 11:15:49;;;;;;;;;9.67;8.33;;;;;;;;5016265;27;52525;-50
2022/10/01 11:18:33;;;;;;;;;6.00;5.00;;;;;;;;4997338;28;51178;-52
2022/10/01 11:21:16;;;;;;;;;4.00;4.00;;;;;;;;5008745;27;51176;-51
2022/10/01 11:23:47;;;;;;;;;4.00;4.00;;;;;;;;5009303;27;50926;-54
2022/10/01 11:26:19;;;;;;;;;10.33;9.33;;;;;;;;5008505;27;51946;-52
2022/10/01 11:29:03;;;;;;;;;7.00;6.00;;;;;;;;5008462;27;51008;-52
2022/10/01 11:31:29;;;;;;;;;6.67;6.67;;;;;;;;5008730;28;51165;-51
2022/10/01 11:33:54;;;;;;;;;7.00;6.00;;;;;;;;5009016;28;51208;-53
2022/10/01 11:36:29;;;;;;;;;4.00;4.00;;;;;;;;5009510;28;51029;-57
2022/10/01 11:38:59;;;;;;;;;7.00;5.67;;;;;;;;5008207;28;51050;-50
2022/10/01 11:41:24;;;;;;;;;15.75;14.25;;;;;;;;5011255;28;51025;-51
2022/10/01 11:43:58;;;;;;;;;5.25;4.75;;;;;;;;5012113;27;51385;-51
2022/10/01 11:46:23;;;;;;;;;6.00;4.00;;;;;;;;5011358;27;52927;-49
2022/10/01 11:49:01;;;;;;;;;4.75;4.50;;;;;;;;5011835;27;51002;-52
2022/10/01 11:51:28;;;;;;;;;7.00;5.67;;;;;;;;5011412;28;51280;-51
2022/10/01 11:54:02;;;;;;;;;2.00;2.00;;;;;;;;5017738;28;51051;-51
2022/10/01 11:59:24;;;;;;;;;4.00;2.33;;;;;;;;5011214;28;51096;-51
2022/10/01 12:02:17;;;;;;;;;4.00;4.00;;;;;;;;5033012;27;50994;-51
2022/10/01 12:05:01;;;;;;;;;4.33;4.33;;;;;;;;5011603;28;50965;-53
2022/10/01 12:07:27;;;;;;;;;7.33;6.67;;;;;;;;5010585;27;51959;-52
2022/10/01 12:10:00;;;;;;;;;6.00;5.00;;;;;;;;5010894;27;51069;-52
2022/10/01 12:12:32;;;;;;;;;5.67;4.67;;;;;;;;5010977;28;50870;-52
2022/10/01 12:15:02;;;;;;;;;2.00;2.00;;;;;;;;5011437;28;51219;-51
2022/10/01 12:17:40;;;;;;;;;4.67;4.67;;;;;;;;5010261;27;52612;-53
2022/10/01 12:20:13;;;;;;;;;5.33;5.33;;;;;;;;5011436;28;51149;-53
2022/10/01 12:22:40;;;;;;;;;7.00;7.00;;;;;;;;5010781;28;50860;-50
2022/10/01 12:25:10;;;;;;;;;7.33;7.33;;;;;;;;5029062;27;51045;-51
2022/10/01 12:27:38;;;;;;;;;4.00;4.00;;;;;;;;5010452;28;53926;-51
2022/10/01 12:30:07;;;;;;;;;8.33;6.33;;;;;;;;5010602;28;51072;-54
2022/10/01 12:33:03;;;;;;;;;3.00;3.00;;;;;;;;5014196;28;51091;-50
2022/10/01 12:35:34;;;;;;;;;2.67;2.67;;;;;;;;5013375;28;51269;-51
2022/10/01 12:38:02;;;;;;;;;5.00;5.00;;;;;;;;5012733;27;51150;-51
2022/10/01 12:40:33;;;;;;;;;4.33;4.33;;;;;;;;5008805;28;51154;-51
2022/10/01 12:43:19;;;;;;;;;4.00;4.00;;;;;;;;5010853;27;51179;-51
2022/10/01 12:45:54;;;;;;;;;5.67;2.67;;;;;;;;5010696;27;51001;-51
2022/10/01 12:48:33;;;;;;;;;4.33;3.67;;;;;;;;5008533;27;52863;-53
2022/10/01 12:51:01;;;;;;;;;3.67;3.00;;;;;;;;5011962;27;51090;-51
2022/10/01 12:53:45;;;;;;;;;4.00;3.00;;;;;;;;5015929;27;51280;-51
2022/10/01 12:56:28;;;;;;;;;5.67;4.00;;;;;;;;5011183;27;51302;-52
2022/10/01 12:59:02;;;;;;;;;3.00;3.00;;;;;;;;5018107;27;51116;-51
2022/10/01 13:01:40;;;;;;;;;2.00;2.00;;;;;;;;5031274;27;51108;-50
2022/10/01 13:04:16;;;;;;;;;2.67;2.67;;;;;;;;5028420;27;51254;-50
2022/10/01 13:06:57;;;;;;;;;2.67;2.33;;;;;;;;5011751;27;51283;-50
2022/10/01 13:09:22;;;;;;;;;2.00;2.00;;;;;;;;5014073;27;51868;-50
2022/10/01 13:11:50;;;;;;;;;2.67;2.00;;;;;;;;5011736;27;50915;-50
2022/10/01 13:14:16;;;;;;;;;3.00;2.33;;;;;;;;5006381;27;51090;-51
2022/10/01 13:16:47;;;;;;;;;4.00;3.33;;;;;;;;5069663;27;50988;-50
2022/10/01 13:19:13;;;;;;;;;2.00;2.00;;;;;;;;5010310;28;52684;-52
2022/10/01 13:21:48;;;;;;;;;4.33;3.00;;;;;;;;5013802;27;51034;-51
2022/10/01 13:24:22;;;;;;;;;3.00;2.33;;;;;;;;5010388;28;50985;-53
2022/10/01 13:26:55;;;;;;;;;3.00;2.33;;;;;;;;5011111;27;51550;-53
2022/10/01 13:29:20;;;;;;;;;4.33;4.33;;;;;;;;5010607;27;52763;-54
2022/10/01 13:31:56;;;;;;;;;4.33;4.33;;;;;;;;5031354;27;51056;-52
2022/10/01 13:34:33;;;;;;;;;5.00;4.33;;;;;;;;5002832;28;51104;-53
2022/10/01 13:37:08;;;;;;;;;4.67;4.67;;;;;;;;5028417;27;51271;-50
2022/10/01 13:39:33;;;;;;;;;1.00;1.00;;;;;;;;5002021;27;51908;-54
2022/10/01 13:41:59;;;;;;;;;5.00;4.67;;;;;;;;5013281;27;51362;-53
2022/10/01 13:44:32;;;;;;;;;2.33;2.33;;;;;;;;5029622;27;51138;-51
2022/10/01 13:47:02;;;;;;;;;4.67;4.00;;;;;;;;5034025;27;51112;-53
2022/10/01 13:49:28;;;;;;;;;4.33;4.00;;;;;;;;5032436;27;51697;-51
2022/10/01 13:51:54;;;;;;;;;4.33;4.00;;;;;;;;5008596;27;51142;-50
2022/10/01 13:54:32;;;;;;;;;6.00;5.33;;;;;;;;5017469;27;51145;-51
2022/10/01 13:57:21;;;;;;;;;8.00;7.67;;;;;;;;5014387;27;51313;-54
2022/10/01 13:59:56;;;;;;;;;7.67;5.67;;;;;;;;5029919;27;52089;-52
2022/10/01 14:02:30;;;;;;;;;3.00;3.00;;;;;;;;5061964;27;50946;-52
2022/10/01 14:05:02;;;;;;;;;4.67;3.67;;;;;;;;5029707;27;50927;-54
2022/10/01 14:07:32;;;;;;;;;3.00;2.33;;;;;;;;5031940;27;51157;-54
2022/10/01 14:09:59;;;;;;;;;4.00;4.00;;;;;;;;5030000;27;50998;-53
2022/10/01 14:18:07;;;;;;;;;7.33;7.33;;;;;;;;5010343;27;51028;-54
2022/10/01 14:20:47;;;;;;;;;3.00;3.00;;;;;;;;5022232;27;51988;-53
2022/10/01 14:23:15;;;;;;;;;4.67;4.00;;;;;;;;5030034;27;51008;-53
2022/10/01 14:25:43;;;;;;;;;2.00;2.00;;;;;;;;5009764;28;51141;-54
2022/10/01 14:28:20;;;;;;;;;4.33;3.00;;;;;;;;5009951;27;51005;-53
2022/10/01 14:31:05;;;;;;;;;4.00;3.33;;;;;;;;5021115;27;51396;-53
2022/10/01 14:33:33;;;;;;;;;5.00;4.00;;;;;;;;5054044;27;51006;-53
2022/10/01 14:36:17;;;;;;;;;3.67;3.00;;;;;;;;5017042;27;50930;-53
2022/10/01 14:38:42;;;;;;;;;3.00;2.67;;;;;;;;5012678;27;51707;-52
2022/10/01 14:41:22;;;;;;;;;4.00;3.00;;;;;;;;5008287;28;51495;-51
2022/10/01 14:43:47;;;;;;;;;1.00;1.00;;;;;;;;4997209;28;51021;-57
2022/10/01 14:46:15;;;;;;;;;2.00;2.00;;;;;;;;5009474;28;51094;-53
2022/10/01 14:48:40;;;;;;;;;3.00;2.33;;;;;;;;5016363;27;51261;-51
2022/10/01 14:51:06;;;;;;;;;2.00;2.00;;;;;;;;5038831;27;51689;-53
2022/10/01 14:53:33;;;;;;;;;1.67;1.00;;;;;;;;5015624;28;50911;-54
2022/10/01 14:56:06;;;;;;;;;3.00;3.00;;;;;;;;5007771;28;50910;-50
2022/10/01 14:58:38;;;;;;;;;4.00;2.67;;;;;;;;5009457;27;51243;-52
2022/10/01 15:01:04;;;;;;;;;1.00;1.00;;;;;;;;5035782;27;52385;-52
2022/10/01 15:03:36;;;;;;;;;5.67;3.00;;;;;;;;5007874;28;51034;-52